Bartlett, New York
Current Conditions -  °F | °C
As of 4:19 AM on Sunday 23 Nov 2014 (Local Time) from KRME Reporting Station
Haze Haze  
Wind Chill: 34°   Ceiling: 2900
Heat Index: 39°   Visibility: 6mi
Dew Point: 38°   Wind: 7mph
Humidity: 96%   Direction: 80°E
Pressure: 30.05"   Gusts: NA
Location:  43.2466°N, 75.4624°W
Report Text: KRME 230919Z AUTO 08006KT 6SM BR OVC029 04/03 A3005 RMK AO2 RAE05 P0000 T00390033
Loading
Personal Weather Stations






























Interactive Weather Map New forecast layout! Learn more

10-Day Weather Forecast

Advertisements
Track Severe Weather on mobile